Time;durP1;ratioP1;P1;durP2;ratioP2;P2;SDS_P1;SDS_P2;PMS_P1;PMS_P2;Temp;Humidity;BMP_temperature;BMP_pressure;BME280_temperature;BME280_humidity;BME280_pressure;Samples;Min_cycle;Max_cycle;Signal;HPM_P1;HPM_P2
2023/07/05 00:01:23;;;;;;;8.27;2.83;;;20.20;99.90;;;;;;5092625;28;20070;-47
2023/07/05 00:03:49;;;;;;;4.00;2.10;;;20.30;99.90;;;;;;5092544;28;20388;-47
2023/07/05 00:06:15;;;;;;;4.63;2.97;;;20.30;99.90;;;;;;5091830;28;20055;-49
2023/07/05 00:08:40;;;;;;;2.38;2.13;;;20.30;99.90;;;;;;5073323;28;20048;-48
2023/07/05 00:11:08;;;;;;;6.47;2.47;;;20.30;99.90;;;;;;5092128;28;20031;-51
2023/07/05 00:13:35;;;;;;;4.93;2.47;;;20.30;99.90;;;;;;5074398;28;20032;-47
2023/07/05 00:16:00;;;;;;;5.90;3.55;;;20.20;99.90;;;;;;5073738;28;20016;-52
2023/07/05 00:18:27;;;;;;;4.40;2.78;;;20.30;99.90;;;;;;5092202;28;20107;-47
2023/07/05 00:20:58;;;;;;;5.38;2.90;;;20.10;99.90;;;;;;5092333;28;20024;-52
2023/07/05 00:23:23;;;;;;;6.60;2.67;;;19.90;99.90;;;;;;5074047;28;20024;-47
2023/07/05 00:25:49;;;;;;;7.57;2.33;;;19.60;99.90;;;;;;5091456;28;20032;-52
2023/07/05 00:28:14;;;;;;;6.82;2.35;;;19.50;99.90;;;;;;5091854;28;20036;-50
2023/07/05 00:30:45;;;;;;;10.52;2.90;;;19.50;99.90;;;;;;5092068;28;20020;-50
2023/07/05 00:33:10;;;;;;;9.82;2.90;;;19.40;99.90;;;;;;5090875;28;20373;-50
2023/07/05 00:35:36;;;;;;;3.45;3.00;;;19.30;99.90;;;;;;5091187;28;20206;-49
2023/07/05 00:38:01;;;;;;;4.78;2.75;;;19.30;99.90;;;;;;5091778;28;20105;-49
2023/07/05 00:40:27;;;;;;;6.93;2.78;;;19.30;99.90;;;;;;5091892;28;20024;-52
2023/07/05 00:42:52;;;;;;;5.68;3.08;;;19.30;99.90;;;;;;5090857;28;20038;-48
2023/07/05 00:45:18;;;;;;;5.18;3.35;;;19.20;99.90;;;;;;5091113;28;20564;-49
2023/07/05 00:47:45;;;;;;;6.93;4.03;;;19.10;99.90;;;;;;5091342;28;20027;-51
2023/07/05 00:50:20;;;;;;;7.18;3.03;;;19.00;99.90;;;;;;5091814;28;20031;-48
2023/07/05 00:52:45;;;;;;;4.67;3.00;;;19.00;99.90;;;;;;5092209;28;20024;-48
2023/07/05 00:55:12;;;;;;;5.68;3.20;;;18.90;99.90;;;;;;5091257;28;20028;-49
2023/07/05 00:57:39;;;;;;;6.20;3.47;;;18.80;99.90;;;;;;5073044;28;20028;-47
2023/07/05 01:00:13;;;;;;;7.70;3.38;;;18.80;99.90;;;;;;5091619;28;20027;-48
2023/07/05 01:02:41;;;;;;;6.38;3.08;;;18.80;99.90;;;;;;5091588;28;20032;-47
2023/07/05 01:05:09;;;;;;;6.63;3.08;;;18.80;99.90;;;;;;5091130;28;20404;-50
2023/07/05 01:07:36;;;;;;;6.38;3.00;;;18.70;99.90;;;;;;5091227;28;20424;-48
2023/07/05 01:10:01;;;;;;;3.33;2.85;;;18.80;99.90;;;;;;5091928;28;20024;-50
2023/07/05 01:12:49;;;;;;;8.52;4.75;;;18.80;99.90;;;;;;5073339;28;20111;-52
2023/07/05 01:15:18;;;;;;;4.47;3.35;;;18.90;99.90;;;;;;5071842;28;20052;-50
2023/07/05 01:18:08;;;;;;;8.65;3.50;;;18.80;99.90;;;;;;5090958;28;20028;-50
2023/07/05 01:20:44;;;;;;;8.65;3.33;;;18.60;99.90;;;;;;5091414;28;20111;-47
2023/07/05 01:23:45;;;;;;;6.10;3.08;;;18.50;99.90;;;;;;5091834;28;20070;-49
2023/07/05 01:26:35;;;;;;;4.97;2.70;;;18.30;99.90;;;;;;5012352;28;20034;-49
2023/07/05 01:29:27;;;;;;;4.80;3.10;;;18.20;99.90;;;;;;5091513;28;20047;-50
2023/07/05 01:32:10;;;;;;;3.35;3.05;;;18.10;99.90;;;;;;5076148;28;20027;-51
2023/07/05 01:34:45;;;;;;;6.07;3.03;;;18.00;99.90;;;;;;5095489;28;20103;-47
2023/07/05 01:37:46;;;;;;;3.03;2.70;;;18.00;99.90;;;;;;5095056;28;20487;-50
2023/07/05 01:40:18;;;;;;;5.40;3.88;;;18.00;99.90;;;;;;5076845;28;20093;-47
2023/07/05 01:42:46;;;;;;;5.60;3.15;;;18.00;99.90;;;;;;5095331;28;20024;-47
2023/07/05 01:45:12;;;;;;;8.65;2.90;;;17.90;99.90;;;;;;5094482;28;20035;-47
2023/07/05 01:48:03;;;;;;;6.00;3.13;;;17.90;99.90;;;;;;5094820;28;20034;-47
2023/07/05 01:50:51;;;;;;;7.60;2.75;;;17.90;99.90;;;;;;5094298;28;20024;-46
2023/07/05 01:53:29;;;;;;;11.77;3.78;;;17.90;99.90;;;;;;5095299;28;20028;-54
2023/07/05 01:56:00;;;;;;;7.78;3.13;;;17.90;99.90;;;;;;5094534;28;20025;-48
2023/07/05 01:58:30;;;;;;;6.05;2.70;;;17.90;99.90;;;;;;5095006;28;20111;-50
2023/07/05 02:00:58;;;;;;;7.55;4.55;;;17.90;99.90;;;;;;5076931;28;20113;-50
2023/07/05 02:03:25;;;;;;;4.10;2.55;;;17.90;99.90;;;;;;5094867;28;20115;-49
2023/07/05 02:05:51;;;;;;;3.47;2.30;;;18.00;99.90;;;;;;5094095;28;20048;-49
2023/07/05 02:08:17;;;;;;;3.85;2.55;;;17.90;99.90;;;;;;5094775;28;20036;-47
2023/07/05 02:10:43;;;;;;;4.68;2.55;;;18.00;99.90;;;;;;5094717;28;20024;-47
2023/07/05 02:13:10;;;;;;;8.27;2.47;;;18.00;99.90;;;;;;5094662;28;20020;-53
2023/07/05 02:15:38;;;;;;;5.53;3.28;;;18.00;99.90;;;;;;5093726;28;20020;-48
2023/07/05 02:18:04;;;;;;;4.00;2.50;;;18.00;99.90;;;;;;5094604;28;20043;-49
2023/07/05 02:20:30;;;;;;;5.38;2.95;;;18.00;99.90;;;;;;5094516;28;20024;-49
2023/07/05 02:22:56;;;;;;;4.60;3.08;;;18.00;99.90;;;;;;5094556;28;20149;-49
2023/07/05 02:25:21;;;;;;;7.70;2.95;;;18.00;99.90;;;;;;5074448;28;20028;-47
2023/07/05 02:27:47;;;;;;;8.77;3.00;;;18.00;99.90;;;;;;5094128;28;20105;-47
2023/07/05 02:30:13;;;;;;;6.40;2.83;;;18.00;99.90;;;;;;5094371;28;20102;-47
2023/07/05 02:32:39;;;;;;;5.45;3.47;;;18.00;99.90;;;;;;5093272;28;20038;-50
2023/07/05 02:35:05;;;;;;;9.32;3.55;;;18.00;99.90;;;;;;5093298;28;20067;-51
2023/07/05 02:37:32;;;;;;;5.47;2.88;;;18.00;99.90;;;;;;5093789;28;20063;-51
2023/07/05 02:39:57;;;;;;;3.38;2.72;;;18.00;99.90;;;;;;5094545;28;20056;-49
2023/07/05 02:42:24;;;;;;;6.03;3.13;;;18.10;99.90;;;;;;5075977;28;20063;-50
2023/07/05 02:44:51;;;;;;;4.45;2.65;;;18.00;99.90;;;;;;5093668;28;20020;-52
2023/07/05 02:47:18;;;;;;;5.93;2.85;;;18.00;99.90;;;;;;5093629;28;20032;-48
2023/07/05 02:49:44;;;;;;;4.07;2.67;;;18.10;99.90;;;;;;5094099;28;20023;-48
2023/07/05 02:52:09;;;;;;;5.43;3.35;;;18.10;99.90;;;;;;5094045;28;20020;-50
2023/07/05 02:54:35;;;;;;;8.40;2.97;;;18.10;99.90;;;;;;5093916;28;20020;-50
2023/07/05 02:57:01;;;;;;;4.55;2.80;;;18.10;99.90;;;;;;5091978;28;20051;-48
2023/07/05 02:59:26;;;;;;;6.93;2.92;;;18.10;99.90;;;;;;5093912;28;20032;-50
2023/07/05 03:01:52;;;;;;;7.90;2.58;;;18.10;99.90;;;;;;5093875;28;20024;-53
2023/07/05 03:04:18;;;;;;;5.35;2.63;;;18.10;99.90;;;;;;5093631;28;20099;-49
2023/07/05 03:06:44;;;;;;;3.55;2.78;;;18.20;99.90;;;;;;5092873;28;20386;-49
2023/07/05 03:09:09;;;;;;;5.78;3.33;;;18.20;99.90;;;;;;5093546;28;20024;-49
2023/07/05 03:11:35;;;;;;;5.05;3.13;;;18.20;99.90;;;;;;5093462;28;20074;-51
2023/07/05 03:14:00;;;;;;;10.15;3.63;;;18.20;99.90;;;;;;5093487;28;20020;-50
2023/07/05 03:16:26;;;;;;;3.35;3.08;;;18.10;99.90;;;;;;5092736;28;20035;-47
2023/07/05 03:18:51;;;;;;;9.13;3.40;;;18.10;99.90;;;;;;5093432;28;20028;-49
2023/07/05 03:21:17;;;;;;;5.90;3.90;;;18.10;99.90;;;;;;5093178;28;20077;-50
2023/07/05 03:23:42;;;;;;;5.63;3.45;;;18.00;99.90;;;;;;5093320;28;20056;-49
2023/07/05 03:26:10;;;;;;;5.55;3.40;;;18.00;99.90;;;;;;5092690;28;20036;-51
2023/07/05 03:28:37;;;;;;;4.72;3.50;;;18.00;99.90;;;;;;5092868;28;20036;-48
2023/07/05 03:31:05;;;;;;;5.22;3.83;;;18.00;99.90;;;;;;5073886;28;20016;-51
2023/07/05 03:33:32;;;;;;;6.30;3.15;;;18.00;99.90;;;;;;5092058;28;20124;-51
2023/07/05 03:35:59;;;;;;;5.18;3.60;;;18.00;99.90;;;;;;5092222;28;20058;-49
2023/07/05 03:38:27;;;;;;;5.70;3.25;;;18.00;99.90;;;;;;5093010;28;20164;-48
2023/07/05 03:41:00;;;;;;;5.70;3.60;;;17.90;99.90;;;;;;5093034;28;20509;-48
2023/07/05 03:43:27;;;;;;;7.50;3.70;;;18.00;99.90;;;;;;5092956;28;20024;-50
2023/07/05 03:45:53;;;;;;;7.43;3.28;;;18.00;99.90;;;;;;5091406;28;20032;-47
2023/07/05 03:48:20;;;;;;;4.80;3.67;;;18.00;99.90;;;;;;5092679;28;20430;-50
2023/07/05 03:50:46;;;;;;;6.97;3.83;;;18.00;99.90;;;;;;5092747;28;20016;-50
2023/07/05 03:53:12;;;;;;;5.35;3.75;;;17.90;99.90;;;;;;5092960;28;20059;-50
2023/07/05 03:55:37;;;;;;;8.00;3.75;;;17.90;99.90;;;;;;5091969;28;20052;-47
2023/07/05 03:58:03;;;;;;;12.88;3.85;;;18.00;99.90;;;;;;5092600;28;20123;-47
2023/07/05 04:00:28;;;;;;;7.25;3.42;;;17.90;99.90;;;;;;5092530;28;20032;-49
2023/07/05 04:02:54;;;;;;;9.98;3.80;;;17.90;99.90;;;;;;5091272;28;20035;-48
2023/07/05 04:05:20;;;;;;;6.75;4.47;;;17.80;99.90;;;;;;5092126;28;20441;-51
2023/07/05 04:07:46;;;;;;;8.60;3.83;;;17.90;99.90;;;;;;5092490;28;20063;-50
2023/07/05 04:10:11;;;;;;;8.68;3.70;;;17.90;99.90;;;;;;5092432;28;20024;-46
2023/07/05 04:12:37;;;;;;;8.95;4.28;;;17.90;99.90;;;;;;5092271;28;20099;-50
2023/07/05 04:15:03;;;;;;;6.50;3.38;;;17.90;99.90;;;;;;5091982;28;20055;-51
2023/07/05 04:17:30;;;;;;;3.83;3.20;;;17.90;99.90;;;;;;5092141;28;20039;-52
2023/07/05 04:19:55;;;;;;;7.60;3.13;;;18.00;99.90;;;;;;5092902;28;20031;-51
2023/07/05 04:22:21;;;;;;;5.57;2.72;;;18.10;99.90;;;;;;5092509;28;20024;-49
2023/07/05 04:24:46;;;;;;;3.00;2.42;;;18.10;99.90;;;;;;5091893;28;20506;-51
2023/07/05 04:27:12;;;;;;;2.75;2.40;;;18.20;99.90;;;;;;5091734;28;20107;-47
2023/07/05 04:29:38;;;;;;;6.50;2.22;;;18.20;99.90;;;;;;5092169;28;20055;-47
2023/07/05 04:32:04;;;;;;;5.15;2.60;;;18.20;99.90;;;;;;5090982;28;20443;-50
2023/07/05 04:34:29;;;;;;;5.57;2.17;;;18.20;99.90;;;;;;5091156;28;20446;-50
2023/07/05 04:36:55;;;;;;;2.85;2.65;;;18.30;99.90;;;;;;5091113;28;20095;-51
2023/07/05 04:39:20;;;;;;;5.97;2.38;;;18.40;99.90;;;;;;5092153;28;20123;-47
2023/07/05 04:41:46;;;;;;;6.88;2.35;;;18.40;99.90;;;;;;5091886;28;20059;-49
2023/07/05 04:44:11;;;;;;;2.92;2.40;;;18.50;99.90;;;;;;5073797;28;20081;-52
2023/07/05 04:46:37;;;;;;;4.05;2.28;;;18.50;99.90;;;;;;5091246;28;20028;-48
2023/07/05 04:49:02;;;;;;;4.10;2.35;;;18.60;99.90;;;;;;5091749;28;20487;-48
2023/07/05 04:51:28;;;;;;;4.85;2.20;;;18.70;99.90;;;;;;5091901;28;20028;-49
2023/07/05 04:53:53;;;;;;;6.40;2.35;;;18.80;99.90;;;;;;5091982;28;20058;-49
2023/07/05 04:56:19;;;;;;;3.28;1.80;;;19.00;99.90;;;;;;5091285;28;20086;-48
2023/07/05 04:58:45;;;;;;;6.68;1.80;;;19.00;99.90;;;;;;5091331;28;20399;-50
2023/07/05 05:01:13;;;;;;;3.92;1.95;;;19.10;99.90;;;;;;5073633;28;20039;-51
2023/07/05 05:03:39;;;;;;;2.58;1.90;;;19.10;99.90;;;;;;5091641;28;20459;-49
2023/07/05 05:06:04;;;;;;;2.30;2.05;;;19.10;99.90;;;;;;5090982;28;20061;-50
2023/07/05 05:08:30;;;;;;;4.03;2.25;;;19.00;99.90;;;;;;5090407;28;20043;-49
2023/07/05 05:10:58;;;;;;;5.60;2.22;;;19.00;99.90;;;;;;5091689;28;20031;-49
2023/07/05 05:13:25;;;;;;;5.93;1.98;;;18.90;99.90;;;;;;5091485;28;20101;-49
2023/07/05 05:15:51;;;;;;;6.93;2.03;;;18.90;99.90;;;;;;5090776;28;20032;-52
2023/07/05 05:18:17;;;;;;;3.42;2.10;;;18.80;99.90;;;;;;5091610;28;20038;-49
2023/07/05 05:20:43;;;;;;;3.40;1.92;;;18.80;99.90;;;;;;5091703;28;20126;-47
2023/07/05 05:23:09;;;;;;;6.05;1.90;;;18.70;99.90;;;;;;5091605;28;20675;-47
2023/07/05 05:25:35;;;;;;;2.42;1.77;;;18.70;99.90;;;;;;5090622;28;20377;-48
2023/07/05 05:28:01;;;;;;;3.42;1.80;;;18.70;99.90;;;;;;5108376;22;20043;-46
2023/07/05 05:30:27;;;;;;;5.18;2.03;;;18.60;99.90;;;;;;5112103;28;20034;-46
2023/07/05 05:32:53;;;;;;;4.72;1.98;;;18.60;99.90;;;;;;5092607;28;20111;-46
2023/07/05 05:35:18;;;;;;;5.05;2.05;;;18.50;99.90;;;;;;5111438;28;20406;-47
2023/07/05 05:37:44;;;;;;;5.47;2.17;;;18.50;99.90;;;;;;5111215;28;20522;-47
2023/07/05 05:40:10;;;;;;;5.22;2.28;;;18.40;99.90;;;;;;5110700;28;20027;-46
2023/07/05 05:42:37;;;;;;;4.32;2.00;;;18.30;99.90;;;;;;5111317;28;20028;-50
2023/07/05 05:45:03;;;;;;;2.92;2.10;;;18.30;99.90;;;;;;5110868;28;20028;-48
2023/07/05 05:47:28;;;;;;;2.40;2.20;;;18.40;99.90;;;;;;5110893;28;20028;-48
2023/07/05 05:49:54;;;;;;;3.63;2.78;;;18.40;99.90;;;;;;5111294;28;20027;-48
2023/07/05 05:52:19;;;;;;;2.20;2.00;;;18.30;99.90;;;;;;5111356;28;20020;-48
2023/07/05 05:54:45;;;;;;;2.50;2.30;;;18.30;99.90;;;;;;5089772;28;20026;-45
2023/07/05 05:57:11;;;;;;;3.42;2.25;;;18.40;99.90;;;;;;5091651;28;20019;-47
2023/07/05 05:59:36;;;;;;;3.47;2.13;;;18.40;99.90;;;;;;5111242;28;20024;-51
2023/07/05 06:02:02;;;;;;;3.72;2.22;;;18.50;99.90;;;;;;5110752;28;20015;-46
2023/07/05 06:04:27;;;;;;;3.30;2.10;;;18.60;99.90;;;;;;5110726;28;20027;-48
2023/07/05 06:06:53;;;;;;;3.05;2.10;;;19.10;99.90;;;;;;5110621;28;20038;-45
2023/07/05 06:09:20;;;;;;;3.42;2.08;;;20.00;99.90;;;;;;5092074;28;20074;-49
2023/07/05 06:11:46;;;;;;;2.95;2.08;;;20.80;99.90;;;;;;5114800;28;20097;-48
2023/07/05 06:14:11;;;;;;;2.05;1.85;;;21.10;99.90;;;;;;5115120;28;20475;-49
2023/07/05 06:16:37;;;;;;;5.15;2.10;;;21.20;99.90;;;;;;5113961;28;20020;-52
2023/07/05 06:19:02;;;;;;;4.53;1.77;;;21.80;99.90;;;;;;5115036;28;20062;-47
2023/07/05 06:21:28;;;;;;;6.45;2.13;;;22.50;99.90;;;;;;5115124;28;20034;-45
2023/07/05 06:23:53;;;;;;;6.60;2.33;;;23.20;99.90;;;;;;5115568;28;20035;-47
2023/07/05 06:26:19;;;;;;;2.42;2.08;;;23.70;99.90;;;;;;5112418;27;20035;-51
2023/07/05 06:28:45;;;;;;;4.65;2.42;;;24.10;98.80;;;;;;5117007;27;20023;-50
2023/07/05 06:31:11;;;;;;;4.50;3.00;;;24.40;97.70;;;;;;5110231;27;20510;-52
2023/07/05 06:33:40;;;;;;;2.85;2.60;;;24.60;97.10;;;;;;5101370;28;20397;-49
2023/07/05 06:36:07;;;;;;;5.05;2.80;;;24.80;96.50;;;;;;5114215;28;20024;-46
2023/07/05 06:38:33;;;;;;;4.25;2.70;;;24.90;96.20;;;;;;5115000;28;20051;-47
2023/07/05 06:40:58;;;;;;;5.40;3.13;;;25.00;95.50;;;;;;5114709;28;20063;-47
2023/07/05 06:43:25;;;;;;;5.72;3.00;;;24.60;94.80;;;;;;5113214;28;20026;-52
2023/07/05 06:45:52;;;;;;;3.78;3.08;;;24.50;94.50;;;;;;5093398;28;20459;-46
2023/07/05 06:48:18;;;;;;;5.38;3.28;;;24.40;93.50;;;;;;5075846;28;20431;-45
2023/07/05 06:50:48;;;;;;;5.50;3.22;;;24.40;93.10;;;;;;5101353;28;20281;-47
2023/07/05 06:53:13;;;;;;;10.27;3.22;;;24.40;91.90;;;;;;5114828;28;20332;-50
2023/07/05 06:55:40;;;;;;;5.15;3.97;;;24.30;91.70;;;;;;5113528;28;20045;-50
2023/07/05 06:58:05;;;;;;;5.65;3.92;;;24.00;92.10;;;;;;5097411;28;20078;-44
2023/07/05 07:00:31;;;;;;;4.68;3.42;;;24.20;91.90;;;;;;5113933;28;20511;-45
2023/07/05 07:02:57;;;;;;;6.18;3.47;;;24.10;91.80;;;;;;5114228;28;20024;-54
2023/07/05 07:05:22;;;;;;;4.60;3.67;;;24.40;91.90;;;;;;5088420;28;20032;-53
2023/07/05 07:07:50;;;;;;;3.97;3.45;;;24.20;91.20;;;;;;5106573;28;20028;-56
2023/07/05 07:10:16;;;;;;;5.95;3.45;;;24.20;91.00;;;;;;5115813;27;20023;-51
2023/07/05 07:12:41;;;;;;;5.03;3.58;;;24.30;90.50;;;;;;5113219;28;20050;-54
2023/07/05 07:15:07;;;;;;;5.45;3.72;;;24.30;90.30;;;;;;5107402;28;20065;-51
2023/07/05 07:17:32;;;;;;;3.55;2.95;;;24.80;90.50;;;;;;5083805;28;20051;-52
2023/07/05 07:19:58;;;;;;;3.35;2.95;;;24.90;89.70;;;;;;5114261;28;20023;-52
2023/07/05 07:22:24;;;;;;;4.57;3.55;;;24.60;89.30;;;;;;5114108;28;20034;-52
2023/07/05 07:24:50;;;;;;;4.60;3.50;;;24.40;89.70;;;;;;5111832;28;20024;-54
2023/07/05 07:27:16;;;;;;;7.43;3.40;;;24.00;89.90;;;;;;5096363;28;20052;-51
2023/07/05 07:29:42;;;;;;;4.50;3.63;;;24.00;89.20;;;;;;5095535;28;20116;-51
2023/07/05 07:32:08;;;;;;;3.55;3.25;;;23.40;90.40;;;;;;5113273;28;20027;-50
2023/07/05 07:34:34;;;;;;;4.25;3.33;;;23.60;90.70;;;;;;5113787;28;20221;-52
2023/07/05 07:37:00;;;;;;;4.32;3.53;;;24.30;89.70;;;;;;5100487;28;20104;-53
2023/07/05 07:39:26;;;;;;;7.82;3.55;;;24.50;87.50;;;;;;5093022;28;20488;-52
2023/07/05 07:41:51;;;;;;;5.38;3.45;;;24.20;88.00;;;;;;5093174;28;20030;-51
2023/07/05 07:44:19;;;;;;;5.65;3.08;;;24.00;89.00;;;;;;5091849;28;20102;-51
2023/07/05 07:46:45;;;;;;;3.47;3.17;;;23.50;90.00;;;;;;5112571;28;20034;-52
2023/07/05 07:49:11;;;;;;;4.00;3.53;;;23.20;90.00;;;;;;5103609;28;20062;-51
2023/07/05 07:51:38;;;;;;;10.82;3.88;;;22.80;90.70;;;;;;5112932;28;20039;-52
2023/07/05 07:54:05;;;;;;;6.53;3.67;;;22.20;91.40;;;;;;5112554;28;20036;-46
2023/07/05 07:56:31;;;;;;;9.70;3.33;;;22.00;91.80;;;;;;5111604;28;20023;-52
2023/07/05 07:58:58;;;;;;;4.97;3.17;;;22.30;91.20;;;;;;5105924;28;20024;-52
2023/07/05 08:01:29;;;;;;;4.50;3.58;;;22.60;91.40;;;;;;5113062;28;20027;-51
2023/07/05 08:03:57;;;;;;;4.68;3.58;;;22.20;92.20;;;;;;5112816;28;20023;-51
2023/07/05 08:06:40;;;;;;;5.40;3.85;;;21.90;92.50;;;;;;5112235;28;20043;-47
2023/07/05 08:09:08;;;;;;;3.70;3.30;;;21.80;93.00;;;;;;5093809;28;20032;-46
2023/07/05 08:11:34;;;;;;;5.78;3.20;;;21.50;93.10;;;;;;5108733;28;20498;-52
2023/07/05 08:14:00;;;;;;;4.80;4.03;;;21.40;93.90;;;;;;5092756;28;20500;-47
2023/07/05 08:16:25;;;;;;;4.47;3.55;;;21.20;94.40;;;;;;5112427;28;20044;-52
2023/07/05 08:18:51;;;;;;;5.22;3.50;;;21.60;94.30;;;;;;5113084;28;20035;-48
2023/07/05 08:21:17;;;;;;;6.35;3.90;;;21.80;93.90;;;;;;5111644;28;20027;-52
2023/07/05 08:23:43;;;;;;;5.15;3.75;;;22.50;93.50;;;;;;5112219;28;20375;-50
2023/07/05 08:26:12;;;;;;;5.85;3.63;;;23.20;92.20;;;;;;5093945;28;20031;-53
2023/07/05 08:28:38;;;;;;;4.20;3.35;;;23.00;91.40;;;;;;5112674;28;20040;-55
2023/07/05 08:31:05;;;;;;;5.28;3.05;;;22.70;91.40;;;;;;5106374;28;20437;-51
2023/07/05 08:33:32;;;;;;;3.75;3.08;;;22.10;92.30;;;;;;5111550;28;20027;-49
2023/07/05 08:36:04;;;;;;;2.78;2.58;;;21.80;92.30;;;;;;5111346;28;20659;-42
2023/07/05 08:38:30;;;;;;;4.45;3.30;;;21.40;93.50;;;;;;5111569;28;20034;-43
2023/07/05 08:41:10;;;;;;;3.78;2.70;;;21.50;93.00;;;;;;5112345;28;20035;-47
2023/07/05 08:43:42;;;;;;;3.47;2.50;;;22.20;91.60;;;;;;5094098;28;20028;-41
2023/07/05 08:46:13;;;;;;;2.10;1.92;;;22.60;90.80;;;;;;5106913;28;20057;-47
2023/07/05 08:48:40;;;;;;;3.90;2.60;;;22.80;90.70;;;;;;5113679;28;20027;-44
2023/07/05 08:51:07;;;;;;;3.35;2.60;;;22.90;90.50;;;;;;5113628;28;20416;-45
2023/07/05 08:53:47;;;;;;;3.03;2.72;;;22.10;90.40;;;;;;5111870;28;20513;-45
2023/07/05 08:56:18;;;;;;;4.20;2.58;;;21.80;91.90;;;;;;5092732;28;20445;-46
2023/07/05 08:58:56;;;;;;;3.65;2.42;;;21.50;91.90;;;;;;5092470;28;20111;-45
2023/07/05 09:01:28;;;;;;;3.47;2.22;;;21.40;91.90;;;;;;5093466;28;20038;-44
2023/07/05 09:03:56;;;;;;;5.78;2.95;;;21.60;91.70;;;;;;5111764;28;20031;-45
2023/07/05 09:07:00;;;;;;;6.05;3.05;;;21.60;91.30;;;;;;5104130;28;20383;-50
2023/07/05 09:09:49;;;;;;;2.75;2.05;;;21.40;91.70;;;;;;5076701;28;20059;-44
2023/07/05 09:12:25;;;;;;;4.85;3.45;;;21.10;91.50;;;;;;5103106;28;20051;-44
2023/07/05 09:15:20;;;;;;;18.38;11.88;;;21.40;91.60;;;;;;5109502;28;20054;-43
2023/07/05 09:17:52;;;;;;;3.27;2.97;;;21.20;91.20;;;;;;5111224;28;20026;-43
2023/07/05 09:20:17;;;;;;;3.70;1.88;;;21.40;91.60;;;;;;5104875;28;20400;-44
2023/07/05 09:22:44;;;;;;;1.80;1.70;;;21.20;90.80;;;;;;5110770;28;20024;-41
2023/07/05 09:25:13;;;;;;;4.03;1.98;;;21.40;91.40;;;;;;5109669;28;20057;-42
2023/07/05 09:27:43;;;;;;;4.53;2.10;;;21.30;90.80;;;;;;5103659;28;20038;-44
2023/07/05 09:30:19;;;;;;;4.55;2.42;;;21.50;90.70;;;;;;5093264;28;20027;-48
2023/07/05 09:32:49;;;;;;;1.85;1.60;;;21.40;90.40;;;;;;5110805;28;20024;-53
2023/07/05 09:35:24;;;;;;;3.63;1.80;;;21.60;90.10;;;;;;5108046;28;20027;-43
2023/07/05 09:38:09;;;;;;;;;;;21.90;89.50;;;;;;5107242;28;20446;-44
2023/07/05 09:40:40;;;;;;;4.75;1.98;;;22.10;89.00;;;;;;5093838;28;19912;-46
2023/07/05 09:43:15;;;;;;;2.45;2.00;;;22.20;88.60;;;;;;5109573;28;20493;-42
2023/07/05 09:45:41;;;;;;;2.60;1.15;;;22.30;89.10;;;;;;5102313;28;20028;-45
2023/07/05 09:48:11;;;;;;;6.40;1.52;;;22.40;87.90;;;;;;5115004;28;20036;-45
2023/07/05 09:50:46;;;;;;;11.07;1.60;;;22.50;87.60;;;;;;5115364;28;20050;-50
2023/07/05 09:53:38;;;;;;;1.90;1.67;;;22.30;87.10;;;;;;5115288;28;20095;-48
2023/07/05 09:56:05;;;;;;;1.50;1.23;;;22.10;87.90;;;;;;5114149;28;20062;-51
2023/07/05 09:58:32;;;;;;;1.85;1.10;;;21.60;88.60;;;;;;5110504;28;20242;-47
2023/07/05 10:01:04;;;;;;;2.17;1.40;;;21.30;88.60;;;;;;5114383;28;20390;-46
2023/07/05 10:03:36;;;;;;;2.10;1.50;;;21.10;90.20;;;;;;5093738;28;20031;-50
2023/07/05 10:06:07;;;;;;;3.50;1.52;;;20.60;90.80;;;;;;5109235;28;20386;-45
2023/07/05 10:08:48;;;;;;;5.63;1.50;;;20.40;91.30;;;;;;5114073;28;20059;-44
2023/07/05 10:11:27;;;;;;;1.65;1.50;;;20.40;91.20;;;;;;5114744;28;20096;-45
2023/07/05 10:14:00;;;;;;;1.80;1.38;;;20.40;91.60;;;;;;5115088;28;20066;-45
2023/07/05 10:17:05;;;;;;;4.65;1.83;;;20.40;91.80;;;;;;5114549;28;20023;-52
2023/07/05 10:19:33;;;;;;;4.00;1.58;;;20.50;91.60;;;;;;5012108;28;20150;-45
2023/07/05 10:22:14;;;;;;;1.65;1.50;;;20.30;92.00;;;;;;5095392;28;20036;-48
2023/07/05 10:24:51;;;;;;;1.73;1.42;;;20.10;91.80;;;;;;5115364;28;20054;-47
2023/07/05 10:27:28;;;;;;;6.75;4.45;;;20.10;91.60;;;;;;5114418;28;20027;-50
2023/07/05 10:30:03;;;;;;;4.50;1.73;;;20.40;92.00;;;;;;5114518;28;20081;-44
2023/07/05 10:32:29;;;;;;;2.47;1.40;;;20.70;91.30;;;;;;5114664;28;20032;-45
2023/07/05 10:34:55;;;;;;;2.50;1.10;;;20.90;90.70;;;;;;5113452;28;20269;-45
2023/07/05 10:37:27;;;;;;;7.75;1.50;;;20.90;89.60;;;;;;5112176;28;20023;-43
2023/07/05 10:39:53;;;;;;;2.70;1.30;;;20.90;89.70;;;;;;5113486;28;20016;-45
2023/07/05 10:42:19;;;;;;;1.48;1.33;;;21.10;90.30;;;;;;5114017;28;20498;-49
2023/07/05 10:44:45;;;;;;;4.82;2.03;;;21.10;90.30;;;;;;5114012;28;20045;-49
2023/07/05 10:47:13;;;;;;;10.13;2.95;;;21.20;90.70;;;;;;5109109;28;20032;-50
2023/07/05 10:49:39;;;;;;;7.03;1.55;;;21.10;89.40;;;;;;5105503;28;20055;-49
2023/07/05 10:52:11;;;;;;;1.80;1.20;;;21.10;89.80;;;;;;5094867;28;20041;-47
2023/07/05 10:54:45;;;;;;;2.17;1.40;;;21.10;89.10;;;;;;5106586;28;20487;-46
2023/07/05 10:57:19;;;;;;;4.55;1.02;;;21.00;88.80;;;;;;5113649;28;20579;-48
2023/07/05 10:59:52;;;;;;;2.58;1.70;;;21.00;86.70;;;;;;5113530;28;20046;-42
2023/07/05 11:02:29;;;;;;;3.13;1.42;;;21.00;88.30;;;;;;5112432;28;20040;-43
2023/07/05 11:04:57;;;;;;;2.63;1.42;;;20.90;88.20;;;;;;5113143;28;20027;-45
2023/07/05 11:07:24;;;;;;;1.52;1.33;;;20.80;89.60;;;;;;5095114;28;20039;-43
2023/07/05 11:09:50;;;;;;;2.17;1.20;;;20.80;89.50;;;;;;5114016;28;20023;-49
2023/07/05 11:12:20;;;;;;;3.97;1.48;;;20.80;90.10;;;;;;5113514;28;20107;-43
2023/07/05 11:14:46;;;;;;;1.40;1.13;;;20.80;90.20;;;;;;5114634;28;20028;-48
2023/07/05 11:17:34;;;;;;;5.57;1.58;;;20.80;89.40;;;;;;5113850;28;20111;-47
2023/07/05 11:19:59;;;;;;;5.15;1.42;;;20.90;89.10;;;;;;5093617;28;20028;-44
2023/07/05 11:22:44;;;;;;;2.95;1.23;;;21.00;90.30;;;;;;5093390;28;20024;-45
2023/07/05 11:25:11;;;;;;;6.72;1.50;;;21.20;90.00;;;;;;5093700;28;20070;-45
2023/07/05 11:27:37;;;;;;;3.53;2.78;;;21.10;88.50;;;;;;5109203;28;20110;-47
2023/07/05 11:30:04;;;;;;;7.38;4.80;;;21.10;87.50;;;;;;5112131;22;20130;-56
2023/07/05 11:33:03;;;;;;;3.15;1.75;;;21.10;86.10;;;;;;5112982;28;20029;-54
2023/07/05 11:35:50;;;;;;;1.20;1.05;;;21.10;87.20;;;;;;5112584;28;20387;-55
2023/07/05 11:38:39;;;;;;;3.25;1.35;;;21.00;87.00;;;;;;5094709;28;20039;-49
2023/07/05 11:41:06;;;;;;;2.97;1.55;;;21.10;88.70;;;;;;5094731;28;20049;-50
2023/07/05 11:43:44;;;;;;;2.00;1.40;;;21.20;87.40;;;;;;5089916;28;20040;-50
2023/07/05 11:46:44;;;;;;;1.92;1.40;;;21.20;87.70;;;;;;5111163;28;20020;-53
2023/07/05 11:49:28;;;;;;;1.40;1.30;;;21.10;88.50;;;;;;5113176;28;20023;-51
2023/07/05 11:51:58;;;;;;;5.38;2.15;;;21.10;88.30;;;;;;5094885;28;20020;-50
2023/07/05 11:54:31;;;;;;;1.77;1.35;;;21.20;89.10;;;;;;5111543;28;20023;-52
2023/07/05 11:57:01;;;;;;;6.35;2.00;;;21.30;88.20;;;;;;5100980;28;20016;-54
2023/07/05 11:59:32;;;;;;;5.95;1.75;;;21.30;86.00;;;;;;5094405;28;20037;-50
2023/07/05 12:02:01;;;;;;;7.25;2.00;;;21.20;87.30;;;;;;5101021;28;20036;-54
2023/07/05 12:04:29;;;;;;;10.50;2.00;;;21.20;86.50;;;;;;5109696;28;20024;-53
2023/07/05 12:06:55;;;;;;;9.02;2.78;;;21.20;86.90;;;;;;5110945;28;20023;-54
2023/07/05 12:09:29;;;;;;;5.80;1.70;;;21.20;86.10;;;;;;5112311;28;20032;-55
2023/07/05 12:11:56;;;;;;;1.93;1.37;;;21.30;86.60;;;;;;5112852;28;20081;-55
2023/07/05 12:14:22;;;;;;;3.75;1.65;;;21.20;87.20;;;;;;5112527;28;20027;-51
2023/07/05 12:16:48;;;;;;;3.78;1.52;;;21.30;88.00;;;;;;5111708;28;20035;-53
2023/07/05 12:19:30;;;;;;;2.45;1.55;;;21.40;86.70;;;;;;5089085;28;20015;-52
2023/07/05 12:22:09;;;;;;;2.17;1.60;;;21.50;85.70;;;;;;5086591;28;20394;-56
2023/07/05 12:24:40;;;;;;;2.15;1.55;;;21.60;85.30;;;;;;5112692;28;20058;-57
2023/07/05 12:27:16;;;;;;;2.50;1.58;;;21.60;84.50;;;;;;5093663;28;20391;-52
2023/07/05 12:29:41;;;;;;;8.55;2.00;;;21.70;84.40;;;;;;5112531;28;20055;-55
2023/07/05 12:32:16;;;;;;;10.18;7.00;;;21.70;84.00;;;;;;5112088;28;20501;-52
2023/07/05 12:34:41;;;;;;;35.92;20.75;;;21.70;83.40;;;;;;5112368;28;20502;-53
2023/07/05 12:37:10;;;;;;;7.32;1.73;;;21.70;83.40;;;;;;5111054;28;20032;-57
2023/07/05 12:39:38;;;;;;;2.33;1.35;;;21.70;83.50;;;;;;5112196;28;20024;-56
2023/07/05 12:42:09;;;;;;;6.70;1.95;;;21.70;83.40;;;;;;5108566;28;20020;-51
2023/07/05 12:44:35;;;;;;;6.45;1.70;;;21.70;84.00;;;;;;5103958;28;20025;-56
2023/07/05 12:47:15;;;;;;;4.05;2.10;;;21.80;83.00;;;;;;5110450;28;20024;-53
2023/07/05 12:49:41;;;;;;;6.25;1.70;;;22.00;82.80;;;;;;5110281;28;20023;-54
2023/07/05 12:52:19;;;;;;;4.80;1.50;;;22.10;83.10;;;;;;5112178;28;20031;-54
2023/07/05 12:54:44;;;;;;;4.32;2.00;;;22.10;81.80;;;;;;5110948;28;20011;-53
2023/07/05 12:57:21;;;;;;;3.50;1.67;;;22.20;82.70;;;;;;5111037;28;20031;-59